Time;durP1;ratioP1;P1;durP2;ratioP2;P2;SDS_P1;SDS_P2;PMS_P1;PMS_P2;Temp;Humidity;BMP_temperature;BMP_pressure;BME280_temperature;BME280_humidity;BME280_pressure;Samples;Min_cycle;Max_cycle;Signal;HPM_P1;HPM_P2
2021/12/07 00:01:50;;;;;;;8.15;2.90;;;2.30;99.90;;;;;;5039551;28;20049;-70
2021/12/07 00:04:18;;;;;;;8.65;2.45;;;2.30;99.90;;;;;;5051122;28;20049;-70
2021/12/07 00:06:45;;;;;;;6.57;3.10;;;2.20;99.90;;;;;;5053182;28;20048;-70
2021/12/07 00:09:13;;;;;;;10.15;2.88;;;2.20;99.90;;;;;;5053520;28;20049;-69
2021/12/07 00:11:40;;;;;;;10.82;3.00;;;2.30;99.90;;;;;;5032791;28;20055;-69
2021/12/07 00:14:15;;;;;;;7.28;2.40;;;2.30;99.90;;;;;;5052786;28;20053;-69
2021/12/07 00:16:43;;;;;;;7.43;2.92;;;2.30;99.90;;;;;;5022247;28;20045;-69
2021/12/07 00:19:11;;;;;;;10.02;2.95;;;2.30;99.90;;;;;;5053020;28;20045;-69
2021/12/07 00:21:39;;;;;;;9.38;2.58;;;2.30;99.90;;;;;;5051832;28;20068;-71
2021/12/07 00:24:06;;;;;;;5.70;2.78;;;2.30;99.90;;;;;;5051945;28;20349;-69
2021/12/07 00:26:37;;;;;;;8.35;2.60;;;2.30;99.90;;;;;;5052885;28;20049;-69
2021/12/07 00:29:04;;;;;;;10.02;2.85;;;2.30;99.90;;;;;;5053133;28;20437;-70
2021/12/07 00:31:39;;;;;;;10.38;3.45;;;2.30;99.90;;;;;;5035837;28;20132;-69
2021/12/07 00:36:37;;;;;;;10.75;3.95;;;2.30;99.90;;;;;;5052770;28;20143;-71
2021/12/07 00:39:06;;;;;;;7.72;2.42;;;2.40;99.90;;;;;;5032109;28;20477;-70
2021/12/07 00:41:33;;;;;;;10.43;2.53;;;2.40;99.90;;;;;;5034978;28;20093;-72
2021/12/07 00:44:01;;;;;;;10.75;2.78;;;2.40;99.90;;;;;;5052651;28;20041;-69
2021/12/07 00:46:29;;;;;;;9.13;2.45;;;2.40;99.90;;;;;;5052702;28;20056;-70
2021/12/07 00:48:56;;;;;;;9.15;2.78;;;2.50;99.90;;;;;;5036080;28;20057;-70
2021/12/07 00:51:25;;;;;;;12.82;3.95;;;2.50;99.90;;;;;;5051243;28;20128;-71
2021/12/07 00:53:52;;;;;;;15.20;4.22;;;2.50;99.90;;;;;;5035534;28;20056;-72
2021/12/07 00:56:21;;;;;;;12.73;3.47;;;2.50;99.90;;;;;;5051745;28;20045;-72
2021/12/07 00:58:48;;;;;;;7.57;2.53;;;2.50;99.90;;;;;;5051863;28;20045;-69
2021/12/07 01:01:16;;;;;;;7.22;2.00;;;2.50;99.90;;;;;;5035472;28;20067;-73
2021/12/07 01:03:44;;;;;;;11.25;2.72;;;2.50;99.90;;;;;;5052094;28;20056;-71
2021/12/07 01:25:15;;;;;;;5.05;1.98;;;2.40;99.90;;;;;;5052485;28;20052;-74
2021/12/07 01:27:44;;;;;;;8.35;3.55;;;2.40;99.90;;;;;;5034654;28;20492;-73
2021/12/07 01:30:20;;;;;;;8.40;3.13;;;2.40;99.90;;;;;;5052725;28;20045;-73
2021/12/07 01:35:40;;;;;;;9.73;2.42;;;2.40;99.90;;;;;;5030306;28;20048;-73
2021/12/07 01:41:09;;;;;;;8.77;2.67;;;2.40;99.90;;;;;;5051024;28;20435;-70
2021/12/07 02:00:02;;;;;;;6.28;3.30;;;2.40;99.90;;;;;;5036887;28;20045;-71
2021/12/07 02:02:29;;;;;;;11.82;2.90;;;2.40;99.90;;;;;;5034404;28;20053;-70
2021/12/07 02:04:57;;;;;;;8.45;2.83;;;2.40;99.90;;;;;;5034186;28;20045;-71
2021/12/07 02:07:24;;;;;;;9.05;2.75;;;2.30;99.90;;;;;;5050941;28;20400;-70
2021/12/07 02:09:56;;;;;;;6.68;2.60;;;2.30;99.90;;;;;;5051693;28;20468;-70
2021/12/07 02:12:23;;;;;;;10.73;2.22;;;2.30;99.90;;;;;;5052914;28;20069;-71
2021/12/07 02:14:50;;;;;;;12.70;2.70;;;2.30;99.90;;;;;;5051404;28;20415;-70
2021/12/07 02:17:21;;;;;;;12.52;4.15;;;2.30;99.90;;;;;;5050575;28;20112;-71
2021/12/07 02:19:48;;;;;;;8.98;2.88;;;2.30;99.90;;;;;;5050630;28;20041;-71
2021/12/07 02:22:17;;;;;;;9.80;3.17;;;2.30;99.90;;;;;;5050082;28;20056;-70
2021/12/07 02:24:45;;;;;;;9.60;2.70;;;2.30;99.90;;;;;;5051480;28;20075;-70
2021/12/07 02:27:12;;;;;;;11.20;3.70;;;2.30;99.90;;;;;;5028794;28;20117;-73
2021/12/07 02:29:39;;;;;;;7.82;2.53;;;2.30;99.90;;;;;;5049574;28;20471;-76
2021/12/07 02:32:06;;;;;;;7.97;2.70;;;2.30;99.90;;;;;;5029049;28;20111;-69
2021/12/07 02:34:36;;;;;;;12.07;1.98;;;2.20;99.90;;;;;;5030649;28;20364;-72
2021/12/07 02:37:03;;;;;;;7.45;1.98;;;2.20;99.90;;;;;;5049521;28;20048;-69
2021/12/07 02:39:33;;;;;;;5.78;2.10;;;2.20;99.90;;;;;;5049629;28;20049;-70
2021/12/07 02:42:00;;;;;;;;;;;2.20;99.90;;;;;;5034089;28;20416;-70
2021/12/07 02:44:27;;;;;;;11.38;2.72;;;2.20;99.90;;;;;;5033576;28;20359;-70
2021/12/07 02:46:54;;;;;;;8.52;2.10;;;2.20;99.90;;;;;;5050920;28;20404;-73
2021/12/07 02:49:21;;;;;;;8.93;3.53;;;2.20;99.90;;;;;;5013731;28;20042;-70
2021/12/07 02:51:48;;;;;;;7.50;2.28;;;2.20;99.90;;;;;;5033378;28;20056;-71
2021/12/07 02:54:15;;;;;;;5.05;2.53;;;2.20;99.90;;;;;;5033331;28;20049;-71
2021/12/07 02:56:42;;;;;;;11.30;2.35;;;2.20;99.90;;;;;;5049719;28;20045;-68
2021/12/07 02:59:10;;;;;;;11.57;2.20;;;2.10;99.90;;;;;;5033462;28;20063;-72
2021/12/07 03:01:44;;;;;;;8.23;1.98;;;2.10;99.90;;;;;;5033387;28;20049;-72
2021/12/07 03:04:18;;;;;;;11.63;2.42;;;2.20;99.90;;;;;;5049106;28;20075;-71
2021/12/07 03:07:15;;;;;;;11.40;2.50;;;2.10;99.90;;;;;;5049907;28;20057;-69
2021/12/07 03:25:51;;;;;;;9.55;3.15;;;2.10;99.90;;;;;;5049854;28;20049;-72
2021/12/07 03:26:23;;;;;;;13.75;2.10;;;2.20;99.90;;;;;;5037119;28;20061;-71
2021/12/07 03:28:52;;;;;;;9.50;2.00;;;2.20;99.90;;;;;;5062147;28;20049;-69
2021/12/07 03:31:19;;;;;;;6.80;2.30;;;2.20;99.90;;;;;;5048943;28;20497;-71
2021/12/07 03:33:46;;;;;;;11.18;2.55;;;2.20;99.90;;;;;;5049134;28;20138;-73
2021/12/07 03:36:13;;;;;;;8.68;2.05;;;2.20;99.90;;;;;;5026873;28;20168;-69
2021/12/07 03:38:40;;;;;;;10.20;2.95;;;2.20;99.90;;;;;;5031894;28;20154;-71
2021/12/07 03:41:07;;;;;;;8.77;2.58;;;2.20;99.90;;;;;;5032724;28;20070;-71
2021/12/07 03:43:34;;;;;;;14.68;3.25;;;2.30;99.90;;;;;;5049323;28;20049;-71
2021/12/07 03:46:02;;;;;;;7.07;1.98;;;2.30;99.90;;;;;;5050109;28;20060;-69
2021/12/07 03:48:31;;;;;;;8.55;2.63;;;2.30;99.90;;;;;;5048564;28;20049;-70
2021/12/07 03:50:58;;;;;;;7.13;2.95;;;2.20;99.90;;;;;;5015391;28;20146;-68
2021/12/07 03:53:27;;;;;;;8.27;2.30;;;2.20;99.90;;;;;;5047981;28;20064;-71
2021/12/07 03:55:57;;;;;;;11.02;2.17;;;2.20;99.90;;;;;;5050044;28;20073;-69
2021/12/07 03:58:24;;;;;;;7.63;2.17;;;2.10;99.90;;;;;;5032799;28;20053;-69
2021/12/07 04:00:51;;;;;;;16.75;3.05;;;2.10;99.90;;;;;;5048635;28;20063;-72
2021/12/07 04:03:18;;;;;;;8.65;2.53;;;2.10;99.90;;;;;;5033035;28;20052;-69
2021/12/07 04:05:52;;;;;;;7.15;2.20;;;2.10;99.90;;;;;;5030063;28;20412;-73
2021/12/07 04:08:22;;;;;;;11.43;2.58;;;2.20;99.90;;;;;;5042940;28;20099;-71
2021/12/07 04:10:50;;;;;;;8.45;2.35;;;2.20;99.90;;;;;;5032369;28;20052;-71
2021/12/07 04:13:17;;;;;;;9.68;3.22;;;2.20;99.90;;;;;;5048810;28;20144;-71
2021/12/07 04:15:45;;;;;;;14.00;4.78;;;2.20;99.90;;;;;;5048631;28;20131;-70
2021/12/07 04:18:12;;;;;;;7.97;3.10;;;2.30;99.90;;;;;;5032742;28;20190;-70
2021/12/07 04:20:39;;;;;;;7.35;2.45;;;2.20;99.90;;;;;;5048405;28;20072;-71
2021/12/07 04:23:06;;;;;;;7.78;2.75;;;2.20;99.90;;;;;;5031663;28;20066;-71
2021/12/07 04:25:33;;;;;;;12.75;2.90;;;2.20;99.90;;;;;;5028708;28;20098;-71
2021/12/07 04:28:02;;;;;;;12.00;2.47;;;2.20;99.90;;;;;;5045535;28;20493;-71
2021/12/07 04:30:31;;;;;;;11.48;3.60;;;2.10;99.90;;;;;;5014960;28;20382;-69
2021/12/07 04:32:58;;;;;;;17.90;2.67;;;2.10;99.90;;;;;;5048742;28;20125;-69
2021/12/07 04:35:25;;;;;;;9.90;2.63;;;2.20;99.90;;;;;;5048545;28;20139;-73
2021/12/07 04:37:53;;;;;;;12.70;3.33;;;2.10;99.90;;;;;;5048549;28;20128;-70
2021/12/07 04:40:23;;;;;;;13.68;3.00;;;2.10;99.90;;;;;;5049041;28;20481;-70
2021/12/07 04:42:50;;;;;;;10.35;3.25;;;2.10;99.90;;;;;;5048393;28;20056;-69
2021/12/07 04:45:53;;;;;;;11.55;2.65;;;2.10;99.90;;;;;;5014263;28;20402;-71
2021/12/07 04:59:05;;;;;;;8.27;2.60;;;2.00;99.90;;;;;;5052604;28;20472;-70
2021/12/07 05:01:33;;;;;;;11.85;2.30;;;1.90;99.90;;;;;;5032032;28;20053;-70
2021/12/07 05:04:07;;;;;;;9.32;2.22;;;1.90;99.90;;;;;;5032477;28;20053;-69
2021/12/07 05:06:39;;;;;;;7.47;2.05;;;1.90;99.90;;;;;;5046039;28;20492;-69
2021/12/07 05:09:28;;;;;;;7.65;2.78;;;1.80;99.90;;;;;;5036221;28;20051;-70
2021/12/07 05:12:20;;;;;;;9.07;2.85;;;1.80;99.90;;;;;;5037864;28;20465;-70
2021/12/07 05:14:43;;;;;;;9.80;2.80;;;1.90;99.90;;;;;;5053181;28;20365;-69
2021/12/07 05:17:26;;;;;;;12.15;4.18;;;1.90;99.90;;;;;;5051705;28;20058;-69
2021/12/07 05:38:59;;;;;;;9.73;2.60;;;1.90;99.90;;;;;;5051483;28;20045;-70
2021/12/07 05:41:26;;;;;;;10.75;2.90;;;1.90;99.90;;;;;;5052466;28;20072;-72
2021/12/07 05:43:56;;;;;;;11.00;2.30;;;2.00;99.90;;;;;;5034944;28;20421;-69
2021/12/07 05:46:23;;;;;;;8.70;3.25;;;2.00;99.90;;;;;;5051053;28;20061;-73
2021/12/07 05:48:50;;;;;;;8.02;2.95;;;2.00;99.90;;;;;;5018277;28;20053;-69
2021/12/07 05:51:17;;;;;;;7.82;2.42;;;2.00;99.90;;;;;;5034716;28;20061;-69
2021/12/07 05:53:44;;;;;;;13.18;2.72;;;2.00;99.90;;;;;;5050608;28;20152;-69
2021/12/07 05:56:10;;;;;;;4.90;2.10;;;2.00;99.90;;;;;;5052520;28;20049;-70
2021/12/07 05:58:37;;;;;;;8.57;2.47;;;2.00;99.90;;;;;;5033806;28;20503;-74
2021/12/07 06:01:04;;;;;;;10.43;3.45;;;2.00;99.90;;;;;;5051186;28;20049;-72
2021/12/07 06:03:34;;;;;;;8.10;2.65;;;1.90;99.90;;;;;;5051930;28;20155;-69
2021/12/07 06:06:12;;;;;;;5.38;2.38;;;2.00;99.90;;;;;;5052086;28;20120;-70
2021/12/07 06:08:39;;;;;;;10.98;3.20;;;2.10;99.90;;;;;;5051146;28;20060;-69
2021/12/07 06:11:06;;;;;;;6.20;2.78;;;2.10;99.90;;;;;;5050114;28;20064;-70
2021/12/07 06:13:33;;;;;;;9.73;2.70;;;2.10;99.90;;;;;;5049966;28;20053;-71
2021/12/07 06:16:06;;;;;;;9.30;4.20;;;2.10;99.90;;;;;;5050106;28;20326;-69
2021/12/07 06:18:34;;;;;;;9.13;2.30;;;2.20;99.90;;;;;;5050592;28;20081;-70
2021/12/07 06:21:01;;;;;;;68.60;43.83;;;2.30;99.90;;;;;;5050869;28;20056;-70
2021/12/07 06:23:28;;;;;;;134.98;120.22;;;2.30;99.90;;;;;;5051217;28;20048;-70
2021/12/07 06:25:58;;;;;;;10.52;6.13;;;2.30;99.90;;;;;;5050457;28;20136;-70
2021/12/07 06:28:25;;;;;;;8.73;3.45;;;2.40;99.90;;;;;;5051872;28;20053;-71
2021/12/07 06:30:51;;;;;;;8.88;2.65;;;2.40;99.90;;;;;;5032122;28;20041;-70
2021/12/07 06:33:20;;;;;;;9.57;3.00;;;2.50;99.90;;;;;;5051395;28;20136;-70
2021/12/07 06:35:49;;;;;;;10.07;2.95;;;2.50;99.90;;;;;;5049109;28;20048;-71
2021/12/07 06:38:18;;;;;;;13.50;5.30;;;2.60;99.90;;;;;;5050882;28;20045;-69
2021/12/07 06:40:45;;;;;;;11.10;2.85;;;2.60;99.90;;;;;;5049391;28;20055;-72
2021/12/07 06:43:12;;;;;;;16.77;4.43;;;2.70;99.90;;;;;;5033380;28;20053;-71
2021/12/07 06:45:39;;;;;;;5.10;2.47;;;2.70;99.90;;;;;;5050497;28;20396;-64
2021/12/07 06:48:06;;;;;;;97.57;55.15;;;2.70;99.90;;;;;;5049695;28;20349;-69
2021/12/07 06:50:34;;;;;;;31.92;17.50;;;2.70;99.90;;;;;;5057739;28;20689;-65
2021/12/07 06:53:01;;;;;;;32.13;18.10;;;2.70;99.90;;;;;;5047195;28;20452;-67
2021/12/07 06:55:28;;;;;;;23.00;13.13;;;2.70;99.90;;;;;;5048974;28;20467;-67
2021/12/07 06:57:55;;;;;;;12.88;6.25;;;2.70;99.90;;;;;;5027638;28;20054;-71
2021/12/07 07:00:24;;;;;;;8.55;3.58;;;2.60;99.90;;;;;;5019045;28;20048;-67
2021/12/07 07:02:51;;;;;;;10.88;3.17;;;2.60;99.90;;;;;;5046460;28;20041;-71
2021/12/07 07:05:18;;;;;;;7.72;3.10;;;2.60;99.90;;;;;;5047148;28;20052;-67
2021/12/07 07:07:45;;;;;;;11.35;3.47;;;2.60;99.90;;;;;;5047361;28;20068;-67
2021/12/07 07:10:15;;;;;;;8.10;3.13;;;2.70;99.90;;;;;;5015312;28;20049;-67
2021/12/07 07:12:44;;;;;;;8.45;3.15;;;2.60;99.90;;;;;;5032105;28;20083;-66
2021/12/07 07:15:11;;;;;;;166.32;98.75;;;2.70;99.90;;;;;;5047857;28;20048;-66
2021/12/07 07:17:38;;;;;;;362.90;222.52;;;2.70;99.90;;;;;;5050190;28;20071;-72
2021/12/07 07:20:07;;;;;;;39.10;22.50;;;2.80;99.90;;;;;;5029816;28;20042;-66
2021/12/07 07:22:34;;;;;;;16.90;7.53;;;2.80;99.90;;;;;;5031443;28;20057;-69
2021/12/07 07:25:01;;;;;;;17.00;5.38;;;2.80;99.90;;;;;;5046728;28;20056;-68
2021/12/07 07:27:29;;;;;;;14.13;4.72;;;2.80;99.90;;;;;;5027742;28;20132;-63
2021/12/07 07:29:56;;;;;;;10.63;2.70;;;2.90;99.90;;;;;;5030415;28;20091;-66
2021/12/07 07:32:24;;;;;;;12.57;2.75;;;2.90;99.90;;;;;;5047043;28;20056;-66
2021/12/07 07:34:51;;;;;;;6.57;3.53;;;2.90;99.90;;;;;;5021418;28;20060;-66
2021/12/07 07:37:17;;;;;;;8.90;2.58;;;2.90;99.90;;;;;;5040349;28;20053;-67
2021/12/07 07:39:44;;;;;;;10.75;2.78;;;2.90;99.90;;;;;;5028731;28;20055;-66
2021/12/07 07:42:11;;;;;;;7.15;2.80;;;3.00;99.90;;;;;;5056185;28;20056;-69
2021/12/07 07:44:38;;;;;;;7.82;2.47;;;3.00;99.90;;;;;;5050532;28;20059;-66
2021/12/07 07:47:05;;;;;;;8.48;3.05;;;3.00;99.90;;;;;;5050456;28;20071;-66
2021/12/07 07:49:32;;;;;;;8.15;2.38;;;3.00;99.90;;;;;;5068118;28;20601;-68
2021/12/07 07:51:59;;;;;;;13.82;2.67;;;3.00;99.90;;;;;;5059528;28;20045;-64
2021/12/07 07:54:28;;;;;;;11.18;4.10;;;3.00;99.90;;;;;;5046574;28;20052;-65
2021/12/07 07:56:55;;;;;;;10.48;6.00;;;3.10;99.90;;;;;;5045947;28;20049;-67
2021/12/07 07:59:22;;;;;;;10.05;3.97;;;3.10;99.90;;;;;;5043934;28;20056;-68
2021/12/07 08:01:49;;;;;;;8.05;2.25;;;3.10;99.90;;;;;;5028614;28;20053;-68
2021/12/07 08:04:16;;;;;;;13.48;3.95;;;3.10;99.90;;;;;;5011842;28;20116;-69
2021/12/07 08:06:43;;;;;;;13.50;3.25;;;3.10;99.90;;;;;;5045285;28;20061;-71
2021/12/07 08:09:10;;;;;;;6.25;2.78;;;3.10;99.90;;;;;;5044379;28;20053;-67
2021/12/07 08:11:37;;;;;;;11.23;3.00;;;3.10;99.90;;;;;;5047103;28;20397;-68
2021/12/07 08:14:04;;;;;;;9.40;3.20;;;3.10;99.90;;;;;;5048057;28;20045;-68
2021/12/07 08:16:31;;;;;;;10.80;4.07;;;3.20;99.90;;;;;;5045363;28;20041;-69
2021/12/07 08:18:58;;;;;;;13.50;4.03;;;3.20;99.90;;;;;;5030096;28;20061;-72
2021/12/07 08:21:25;;;;;;;9.93;2.78;;;3.30;99.90;;;;;;5045614;28;20511;-68
2021/12/07 08:23:51;;;;;;;9.57;3.95;;;3.40;99.90;;;;;;5046051;28;20063;-65
2021/12/07 08:26:23;;;;;;;10.68;2.80;;;3.40;99.90;;;;;;5053106;28;20056;-67
2021/12/07 08:28:51;;;;;;;13.70;2.88;;;3.50;99.90;;;;;;5037041;28;20381;-67
2021/12/07 08:31:18;;;;;;;14.45;4.18;;;3.60;99.90;;;;;;5063506;28;20052;-67
2021/12/07 08:33:45;;;;;;;12.65;3.13;;;3.60;99.90;;;;;;5055850;28;20045;-65
2021/12/07 08:36:12;;;;;;;33.95;19.35;;;3.60;99.90;;;;;;5072847;28;20056;-66
2021/12/07 08:38:39;;;;;;;170.27;109.07;;;3.60;99.90;;;;;;5052862;28;20407;-69
2021/12/07 08:41:06;;;;;;;13.95;6.43;;;3.60;99.90;;;;;;5052754;28;20044;-67
2021/12/07 08:43:34;;;;;;;8.30;3.00;;;3.60;99.90;;;;;;5036180;28;20474;-67
2021/12/07 08:46:03;;;;;;;11.25;2.70;;;3.70;99.90;;;;;;5052433;28;20459;-67
2021/12/07 08:48:30;;;;;;;8.32;2.72;;;3.70;99.90;;;;;;5052558;28;20077;-68
2021/12/07 08:50:59;;;;;;;15.00;3.90;;;3.70;99.90;;;;;;5051449;28;20152;-66
2021/12/07 08:53:26;;;;;;;10.93;2.88;;;3.70;99.90;;;;;;5050736;28;20041;-68
2021/12/07 09:01:25;;;;;;;7.97;3.00;;;3.70;99.90;;;;;;5050775;28;20105;-72
2021/12/07 09:03:53;;;;;;;12.85;3.63;;;3.70;99.90;;;;;;5050372;28;20480;-72
2021/12/07 09:06:20;;;;;;;13.60;4.07;;;3.80;99.90;;;;;;5050176;28;20049;-72
2021/12/07 09:08:53;;;;;;;13.05;3.05;;;3.80;99.90;;;;;;5050298;28;20049;-71
2021/12/07 09:11:20;;;;;;;9.88;2.63;;;3.80;99.90;;;;;;5052216;28;20400;-69
2021/12/07 09:13:47;;;;;;;14.07;4.05;;;3.90;99.90;;;;;;5051775;28;20511;-67
2021/12/07 09:16:17;;;;;;;12.52;3.80;;;3.90;99.90;;;;;;5051890;28;20407;-66
2021/12/07 09:18:44;;;;;;;12.23;2.80;;;4.00;99.90;;;;;;5020677;28;20080;-71
2021/12/07 09:21:11;;;;;;;37.40;23.83;;;4.10;99.90;;;;;;5050546;28;20053;-73
2021/12/07 09:23:38;;;;;;;8.70;4.13;;;4.30;99.90;;;;;;5050953;28;20053;-70
2021/12/07 09:26:05;;;;;;;13.43;4.65;;;4.40;99.90;;;;;;5052191;28;20052;-69
2021/12/07 09:28:34;;;;;;;14.73;3.63;;;4.50;99.90;;;;;;5052051;28;20056;-74
2021/12/07 09:31:03;;;;;;;9.10;3.00;;;4.50;99.90;;;;;;5050577;28;20548;-75
2021/12/07 09:33:30;;;;;;;11.05;2.60;;;4.50;99.90;;;;;;5035327;28;20064;-76
2021/12/07 09:35:58;;;;;;;8.95;3.00;;;4.50;99.90;;;;;;5047556;28;20050;-75
2021/12/07 09:38:26;;;;;;;12.43;2.60;;;4.50;99.90;;;;;;5031490;28;20057;-75
2021/12/07 09:40:55;;;;;;;9.48;3.28;;;4.60;99.90;;;;;;5015260;28;20125;-75
2021/12/07 09:43:23;;;;;;;10.60;2.55;;;4.60;99.90;;;;;;5032932;28;20097;-75
2021/12/07 09:45:51;;;;;;;8.18;2.90;;;4.60;99.90;;;;;;5063983;28;20149;-75
2021/12/07 09:48:18;;;;;;;17.33;3.45;;;4.60;99.90;;;;;;5064703;28;20097;-75
2021/12/07 09:50:46;;;;;;;12.35;3.33;;;4.70;99.90;;;;;;5032213;28;20147;-76
2021/12/07 09:53:14;;;;;;;14.00;3.10;;;4.70;99.90;;;;;;5047653;28;20054;-75
2021/12/07 09:55:42;;;;;;;12.65;2.92;;;4.80;99.90;;;;;;5072884;28;20063;-76
2021/12/07 09:58:09;;;;;;;14.27;4.10;;;4.80;99.90;;;;;;5072361;28;20139;-76
2021/12/07 10:00:36;;;;;;;13.43;3.13;;;4.90;99.90;;;;;;5054891;28;20048;-75
2021/12/07 10:03:04;;;;;;;10.95;3.72;;;5.00;99.90;;;;;;5071195;28;20098;-76
2021/12/07 10:05:32;;;;;;;11.15;3.08;;;5.10;99.90;;;;;;5072178;28;20055;-75
2021/12/07 10:07:59;;;;;;;13.90;3.75;;;5.20;99.90;;;;;;5059337;28;20104;-73
2021/12/07 10:10:28;;;;;;;14.60;3.70;;;5.20;99.90;;;;;;5052095;28;20064;-75
2021/12/07 10:12:56;;;;;;;15.77;3.78;;;5.30;99.90;;;;;;5050779;28;20496;-73
2021/12/07 10:15:23;;;;;;;18.83;3.60;;;5.40;99.90;;;;;;5051862;28;20415;-76
2021/12/07 10:18:10;;;;;;;14.02;3.03;;;5.50;99.90;;;;;;5051823;28;20473;-75
2021/12/07 10:21:03;;;;;;;16.98;4.38;;;5.60;99.90;;;;;;5051476;28;20460;-75
2021/12/07 10:23:36;;;;;;;10.50;3.70;;;5.70;99.90;;;;;;5034627;28;20056;-75
2021/12/07 10:26:08;;;;;;;13.10;4.03;;;5.80;99.90;;;;;;5050525;28;20069;-73
2021/12/07 10:28:47;;;;;;;14.93;4.00;;;5.90;99.90;;;;;;5034559;28;20136;-73
2021/12/07 10:31:16;;;;;;;;;;;6.00;99.90;;;;;;5051290;28;20059;-76
2021/12/07 10:33:48;;;;;;;18.05;3.85;;;6.10;99.90;;;;;;5050114;28;19921;-75
2021/12/07 10:36:17;;;;;;;13.32;4.93;;;6.20;99.90;;;;;;5050249;28;20044;-75
2021/12/07 10:38:57;;;;;;;10.53;3.73;;;6.30;99.90;;;;;;5050325;28;20045;-75
2021/12/07 10:41:26;;;;;;;21.13;7.38;;;6.40;99.90;;;;;;5050459;28;20405;-75
2021/12/07 10:44:07;;;;;;;18.75;7.25;;;6.50;99.90;;;;;;5033734;28;20057;-73
2021/12/07 10:46:39;;;;;;;19.02;5.88;;;6.60;99.90;;;;;;5030879;28;20428;-75
2021/12/07 10:49:12;;;;;;;14.90;3.80;;;6.70;99.90;;;;;;5029517;28;20452;-74
2021/12/07 10:51:40;;;;;;;13.48;4.60;;;6.80;99.90;;;;;;5013645;28;20493;-74
2021/12/07 10:54:07;;;;;;;27.98;6.25;;;6.80;99.90;;;;;;5027297;28;20060;-75
2021/12/07 10:56:36;;;;;;;13.30;3.35;;;6.80;99.90;;;;;;5053697;28;20084;-75
2021/12/07 10:59:05;;;;;;;17.10;3.60;;;6.90;99.90;;;;;;5053639;28;20040;-75
2021/12/07 11:01:38;;;;;;;13.50;3.70;;;6.90;99.90;;;;;;5071090;28;20426;-74
2021/12/07 11:04:29;;;;;;;20.27;6.72;;;6.90;99.90;;;;;;5069491;28;20147;-75
2021/12/07 11:07:19;;;;;;;12.15;2.65;;;6.90;99.90;;;;;;5066664;28;20053;-75
2021/12/07 11:10:12;;;;;;;11.27;3.08;;;7.00;99.90;;;;;;5030189;28;20057;-75
2021/12/07 11:12:50;;;;;;;12.30;3.45;;;7.00;99.90;;;;;;5039883;28;20068;-71
2021/12/07 11:15:24;;;;;;;18.60;7.07;;;7.00;99.90;;;;;;5030721;28;20358;-71
2021/12/07 11:17:57;;;;;;;26.30;13.27;;;7.00;99.90;;;;;;5031722;28;20045;-71
2021/12/07 11:20:25;;;;;;;11.93;4.85;;;7.00;99.90;;;;;;5035641;28;20481;-70
2021/12/07 11:22:58;;;;;;;14.80;4.82;;;7.00;99.90;;;;;;5049925;28;20049;-71
2021/12/07 11:29:39;;;;;;;17.05;6.20;;;7.10;99.90;;;;;;5017363;28;20052;-71
2021/12/07 11:31:23;;;;;;;10.98;3.67;;;7.20;99.90;;;;;;5041550;28;20053;-71
2021/12/07 11:34:17;;;;;;;15.13;3.58;;;7.20;99.90;;;;;;5057425;28;20040;-71
2021/12/07 11:36:48;;;;;;;13.18;3.53;;;7.30;99.90;;;;;;5048804;28;20116;-71
2021/12/07 11:39:26;;;;;;;7.05;2.90;;;7.30;99.90;;;;;;5038733;28;20048;-70
2021/12/07 11:42:11;;;;;;;13.82;4.30;;;7.30;99.90;;;;;;5050190;28;20044;-70
2021/12/07 11:44:52;;;;;;;13.65;3.35;;;7.20;99.90;;;;;;5050738;28;20418;-70
2021/12/07 11:47:36;;;;;;;17.08;2.92;;;7.20;99.90;;;;;;5033824;28;20120;-71
2021/12/07 11:50:28;;;;;;;19.83;7.00;;;7.10;99.90;;;;;;5050079;28;20052;-72
2021/12/07 11:53:07;;;;;;;17.98;8.85;;;7.10;99.90;;;;;;5043994;28;20044;-73
2021/12/07 11:55:35;;;;;;;15.73;3.72;;;7.00;99.90;;;;;;5029772;28;20125;-67
2021/12/07 11:58:24;;;;;;;16.50;4.57;;;6.90;99.90;;;;;;5049234;28;20044;-67
2021/12/07 12:01:08;;;;;;;17.63;4.05;;;6.90;99.90;;;;;;5049386;28;20412;-71
2021/12/07 12:03:39;;;;;;;9.23;3.10;;;6.90;99.90;;;;;;5050417;28;20051;-70
2021/12/07 12:06:09;;;;;;;12.88;2.63;;;6.90;99.90;;;;;;5050182;28;20048;-73
2021/12/07 12:08:37;;;;;;;12.90;2.95;;;6.80;99.90;;;;;;5067013;28;20056;-71
2021/12/07 12:11:45;;;;;;;13.18;3.15;;;6.80;99.90;;;;;;5051400;28;20082;-72
2021/12/07 12:14:50;;;;;;;9.48;2.67;;;6.80;99.90;;;;;;5050661;28;20052;-69
2021/12/07 12:17:42;;;;;;;13.48;2.90;;;6.80;99.90;;;;;;5051256;28;20380;-67
2021/12/07 12:20:32;;;;;;;12.40;3.08;;;6.80;99.90;;;;;;5032789;28;20053;-70
2021/12/07 12:23:02;;;;;;;17.23;3.50;;;6.80;99.90;;;;;;5047991;28;20067;-71
2021/12/07 12:25:29;;;;;;;16.92;3.50;;;6.80;99.90;;;;;;5048179;28;20048;-71
2021/12/07 12:27:57;;;;;;;14.57;3.30;;;6.80;99.90;;;;;;5049574;28;20476;-71
2021/12/07 12:30:26;;;;;;;50.08;28.30;;;6.80;99.90;;;;;;5048015;28;20056;-67
2021/12/07 12:32:56;;;;;;;41.80;24.17;;;6.80;99.90;;;;;;5048097;28;20057;-68
2021/12/07 12:35:40;;;;;;;25.00;9.60;;;6.80;99.90;;;;;;5029911;28;20080;-68
2021/12/07 12:38:15;;;;;;;15.82;3.83;;;6.80;99.90;;;;;;5043463;28;20056;-68
2021/12/07 12:40:42;;;;;;;13.25;2.92;;;6.80;99.90;;;;;;5050193;28;20048;-68
2021/12/07 12:43:09;;;;;;;11.60;3.05;;;6.80;99.90;;;;;;5046937;28;20063;-68
2021/12/07 12:45:38;;;;;;;11.05;3.70;;;6.80;99.90;;;;;;5047500;28;20144;-67
2021/12/07 12:48:12;;;;;;;14.45;3.45;;;6.80;99.90;;;;;;5046940;28;20067;-68
2021/12/07 12:50:49;;;;;;;16.45;3.55;;;6.80;99.90;;;;;;5049693;28;20075;-67
2021/12/07 12:53:23;;;;;;;13.10;3.45;;;6.80;99.90;;;;;;5050024;28;20049;-68
2021/12/07 12:55:51;;;;;;;12.43;3.47;;;6.90;99.90;;;;;;5028562;28;20045;-69
2021/12/07 12:58:21;;;;;;;11.73;3.72;;;6.90;99.90;;;;;;5028988;28;20057;-67
2021/12/07 13:01:01;;;;;;;14.43;4.50;;;6.90;99.90;;;;;;5020806;28;20443;-69
2021/12/07 13:03:50;;;;;;;16.70;5.05;;;6.90;99.90;;;;;;5049605;28;20076;-68
2021/12/07 13:06:48;;;;;;;12.93;3.28;;;7.00;99.90;;;;;;5049741;28;20051;-68
2021/12/07 13:09:17;;;;;;;9.52;3.47;;;7.00;99.90;;;;;;5045523;28;20492;-69
2021/12/07 13:12:02;;;;;;;14.45;3.42;;;7.00;99.90;;;;;;5031210;28;20061;-68
2021/12/07 13:14:32;;;;;;;6.88;3.20;;;7.00;99.90;;;;;;5044954;28;20473;-69
2021/12/07 13:17:14;;;;;;;9.02;4.05;;;7.00;99.90;;;;;;5052541;28;20053;-68
2021/12/07 13:20:11;;;;;;;15.05;4.32;;;7.00;99.90;;;;;;5051977;28;20041;-69
2021/12/07 13:22:43;;;;;;;8.27;3.80;;;7.10;99.90;;;;;;5050804;28;20089;-70
2021/12/07 13:25:49;;;;;;;8.23;2.80;;;7.10;99.90;;;;;;5051680;28;20132;-68
2021/12/07 13:28:28;;;;;;;19.52;5.10;;;7.10;99.90;;;;;;5035230;28;20095;-69
2021/12/07 13:31:21;;;;;;;13.73;3.60;;;7.10;99.90;;;;;;5041926;28;20061;-69
2021/12/07 13:33:52;;;;;;;12.88;3.97;;;7.20;99.90;;;;;;5033089;28;20449;-69
2021/12/07 13:36:48;;;;;;;12.35;2.80;;;7.10;99.90;;;;;;5063461;28;20689;-69
2021/12/07 13:39:17;;;;;;;9.07;2.92;;;7.20;99.90;;;;;;5035228;28;20493;-69
2021/12/07 13:41:57;;;;;;;7.57;2.65;;;7.20;99.90;;;;;;5052726;28;20065;-68
2021/12/07 13:44:25;;;;;;;7.78;2.90;;;7.20;99.90;;;;;;5052733;28;20052;-72
2021/12/07 13:47:00;;;;;;;9.93;3.53;;;7.20;99.90;;;;;;5035130;28;20151;-69
2021/12/07 13:49:27;;;;;;;11.80;4.03;;;7.30;99.90;;;;;;5018060;28;20461;-69
2021/12/07 13:51:54;;;;;;;7.65;2.63;;;7.30;99.90;;;;;;5032593;28;20049;-68
2021/12/07 13:54:21;;;;;;;107.50;61.17;;;7.30;99.90;;;;;;5049500;28;20085;-69
2021/12/07 13:56:50;;;;;;;12.50;3.17;;;7.40;99.90;;;;;;5034525;28;20103;-68
2021/12/07 13:59:22;;;;;;;10.88;3.83;;;7.30;99.90;;;;;;5051232;28;20085;-70
2021/12/07 14:01:51;;;;;;;10.65;2.53;;;7.40;99.90;;;;;;5019302;28;20071;-67
2021/12/07 14:04:19;;;;;;;;;;;7.40;99.90;;;;;;5051015;28;20056;-68
2021/12/07 14:06:47;;;;;;;16.23;2.85;;;7.40;99.90;;;;;;5050544;28;19996;-68
2021/12/07 14:09:14;;;;;;;20.33;4.15;;;7.40;99.90;;;;;;5045892;28;20055;-69
2021/12/07 14:11:51;;;;;;;10.02;3.38;;;7.50;99.90;;;;;;5052382;28;20053;-67
2021/12/07 14:14:18;;;;;;;6.00;2.65;;;7.50;99.90;;;;;;5014809;28;20205;-68
2021/12/07 14:16:45;;;;;;;9.27;3.03;;;7.50;99.90;;;;;;5046682;28;20382;-68
2021/12/07 14:19:12;;;;;;;6.25;2.47;;;7.60;99.90;;;;;;5050552;28;20045;-67
2021/12/07 14:21:41;;;;;;;8.30;2.15;;;7.60;99.90;;;;;;5051239;28;20404;-68
2021/12/07 14:24:15;;;;;;;6.68;2.58;;;7.60;99.90;;;;;;5050451;28;20057;-67
2021/12/07 14:26:42;;;;;;;9.85;2.15;;;7.60;99.90;;;;;;5034798;28;20489;-67
2021/12/07 14:29:29;;;;;;;9.07;2.88;;;7.70;99.90;;;;;;5050992;28;20102;-68
2021/12/07 14:31:57;;;;;;;13.30;2.70;;;7.60;99.90;;;;;;5052669;28;20055;-68
2021/12/07 14:34:31;;;;;;;9.43;2.33;;;7.60;99.90;;;;;;5050977;28;20719;-68
2021/12/07 14:36:59;;;;;;;9.18;2.28;;;7.50;99.90;;;;;;5033787;28;20052;-67
2021/12/07 14:39:37;;;;;;;5.97;2.10;;;7.50;99.90;;;;;;5051654;28;20484;-68
2021/12/07 14:42:05;;;;;;;8.52;2.80;;;7.50;99.90;;;;;;5050245;28;20055;-68
2021/12/07 14:44:35;;;;;;;8.27;2.58;;;7.50;99.90;;;;;;5052315;28;20072;-68
2021/12/07 14:47:06;;;;;;;5.90;3.10;;;7.40;99.90;;;;;;5050360;28;20378;-68